Time;durP1;ratioP1;P1;durP2;ratioP2;P2;SDS_P1;SDS_P2;PMS_P1;PMS_P2;Temp;Humidity;BMP_temperature;BMP_pressure;BME280_temperature;BME280_humidity;BME280_pressure;Samples;Min_cycle;Max_cycle;Signal;HPM_P1;HPM_P2
2022/03/28 00:03:10;;;;;;;22.40;8.00;;;;;;;;;;10442448;28;20128;-72
2022/03/28 00:08:14;;;;;;;23.00;8.02;;;;;;;;;;10445550;28;20065;-71
2022/03/28 00:13:18;;;;;;;21.53;7.93;;;;;;;;;;10437978;28;20633;-72
2022/03/28 00:18:21;;;;;;;;;;;;;;;;;;10443630;28;20060;-72
2022/03/28 00:23:25;;;;;;;19.13;7.38;;;;;;;;;;10433248;28;20001;-72
2022/03/28 00:28:29;;;;;;;21.15;8.00;;;;;;;;;;10441658;28;20038;-70
2022/03/28 00:33:32;;;;;;;;;;;;;;;;;;10439888;28;20138;-70
2022/03/28 00:38:35;;;;;;;24.90;7.85;;;;;;;;;;10443452;28;19959;-70
2022/03/28 00:43:45;;;;;;;21.73;7.57;;;;;;;;;;10457504;28;20134;-71
2022/03/28 00:48:48;;;;;;;23.42;7.15;;;;;;;;;;10450424;28;20104;-70
2022/03/28 00:53:51;;;;;;;21.27;7.50;;;;;;;;;;10447014;28;20037;-71
2022/03/28 00:58:55;;;;;;;19.88;7.78;;;;;;;;;;10456180;28;20081;-70
2022/03/28 01:03:58;;;;;;;18.75;6.72;;;;;;;;;;10473585;28;20055;-72
2022/03/28 01:09:01;;;;;;;22.07;7.27;;;;;;;;;;10471705;28;20038;-70
2022/03/28 01:14:06;;;;;;;23.30;7.38;;;;;;;;;;10439252;28;20060;-72
2022/03/28 01:19:08;;;;;;;;;;;;;;;;;;10445453;28;20029;-72
2022/03/28 01:24:12;;;;;;;26.13;8.15;;;;;;;;;;10463943;28;19966;-71
2022/03/28 01:29:15;;;;;;;23.00;7.45;;;;;;;;;;10447759;28;20049;-71
2022/03/28 01:34:19;;;;;;;20.48;6.90;;;;;;;;;;10450938;28;20053;-71
2022/03/28 01:39:23;;;;;;;21.73;8.10;;;;;;;;;;10452641;28;20029;-71
2022/03/28 01:44:26;;;;;;;20.60;8.02;;;;;;;;;;10447948;28;20036;-71
2022/03/28 01:49:31;;;;;;;20.60;7.50;;;;;;;;;;10451334;28;20396;-72
2022/03/28 01:54:35;;;;;;;21.15;7.38;;;;;;;;;;10444176;28;20043;-71
2022/03/28 01:59:38;;;;;;;;;;;;;;;;;;10468873;28;20032;-71
2022/03/28 02:04:41;;;;;;;23.40;7.50;;;;;;;;;;10445243;28;19935;-70
2022/03/28 02:09:46;;;;;;;18.77;7.43;;;;;;;;;;10447351;28;20039;-70
2022/03/28 02:14:49;;;;;;;26.33;7.05;;;;;;;;;;10445936;28;20040;-70
2022/03/28 02:19:53;;;;;;;18.50;7.35;;;;;;;;;;10447527;28;20032;-71
2022/03/28 02:24:57;;;;;;;19.17;7.20;;;;;;;;;;10447183;28;20029;-72
2022/03/28 02:30:00;;;;;;;17.67;6.72;;;;;;;;;;10446784;28;20029;-70
2022/03/28 02:35:04;;;;;;;17.02;6.82;;;;;;;;;;10448299;28;20052;-69
2022/03/28 02:40:08;;;;;;;;;;;;;;;;;;10451471;28;20052;-69
2022/03/28 02:45:12;;;;;;;21.20;6.43;;;;;;;;;;10470488;28;19994;-70
2022/03/28 02:50:15;;;;;;;15.20;5.28;;;;;;;;;;10447039;28;20033;-73
2022/03/28 02:55:18;;;;;;;18.60;5.88;;;;;;;;;;10446142;28;20033;-72
2022/03/28 03:00:22;;;;;;;14.52;5.97;;;;;;;;;;10443128;28;20052;-72
2022/03/28 03:05:26;;;;;;;16.73;5.57;;;;;;;;;;10446076;28;20045;-69
2022/03/28 03:10:30;;;;;;;16.83;5.75;;;;;;;;;;10443872;28;20104;-70
2022/03/28 03:15:34;;;;;;;15.30;5.30;;;;;;;;;;10443793;28;20428;-69
2022/03/28 03:20:36;;;;;;;;;;;;;;;;;;10451617;28;20037;-70
2022/03/28 03:25:39;;;;;;;11.97;4.77;;;;;;;;;;10459497;28;19975;-68
2022/03/28 03:30:43;;;;;;;18.38;5.90;;;;;;;;;;10445313;28;20044;-70
2022/03/28 03:35:46;;;;;;;16.27;5.88;;;;;;;;;;10466526;28;20044;-70
2022/03/28 03:40:50;;;;;;;14.45;6.03;;;;;;;;;;10441943;28;20064;-70
2022/03/28 03:45:54;;;;;;;14.55;5.45;;;;;;;;;;10440169;28;20033;-71
2022/03/28 03:50:58;;;;;;;12.17;5.87;;;;;;;;;;10441050;28;20045;-71
2022/03/28 03:56:01;;;;;;;16.63;5.70;;;;;;;;;;10443429;28;20033;-71
2022/03/28 04:01:06;;;;;;;20.77;5.78;;;;;;;;;;10448517;28;20559;-71
2022/03/28 04:06:10;;;;;;;18.10;5.90;;;;;;;;;;10458255;28;20037;-72
2022/03/28 04:11:14;;;;;;;13.80;5.53;;;;;;;;;;10443767;28;20041;-71
2022/03/28 04:16:23;;;;;;;13.57;5.45;;;;;;;;;;10449526;28;20059;-70
2022/03/28 04:21:25;;;;;;;;;;;;;;;;;;10459288;28;20074;-71
2022/03/28 04:26:29;;;;;;;15.20;5.77;;;;;;;;;;10450066;28;19924;-69
2022/03/28 04:31:37;;;;;;;15.90;6.32;;;;;;;;;;10445712;28;20521;-70
2022/03/28 04:36:40;;;;;;;16.80;5.68;;;;;;;;;;10442647;28;20063;-71
2022/03/28 04:41:44;;;;;;;16.23;6.30;;;;;;;;;;10444443;28;20119;-71
2022/03/28 04:46:48;;;;;;;14.02;5.60;;;;;;;;;;10457935;28;20401;-71
2022/03/28 04:51:51;;;;;;;15.00;5.75;;;;;;;;;;10441500;28;20036;-70
2022/03/28 04:56:54;;;;;;;18.20;5.75;;;;;;;;;;10442237;28;20493;-73
2022/03/28 05:01:58;;;;;;;17.35;6.55;;;;;;;;;;10447373;28;20037;-72
2022/03/28 05:07:01;;;;;;;13.87;5.73;;;;;;;;;;10454708;28;20455;-71
2022/03/28 05:12:05;;;;;;;16.50;7.15;;;;;;;;;;10439240;28;20486;-71
2022/03/28 05:17:09;;;;;;;21.33;6.07;;;;;;;;;;10459420;28;20060;-71
2022/03/28 05:22:12;;;;;;;18.33;5.93;;;;;;;;;;10443154;28;20431;-70
2022/03/28 05:27:16;;;;;;;20.38;8.35;;;;;;;;;;10452893;28;20098;-71
2022/03/28 05:32:20;;;;;;;25.70;8.63;;;;;;;;;;10449282;28;20056;-71
2022/03/28 05:37:22;;;;;;;;;;;;;;;;;;10447650;28;20040;-70
2022/03/28 05:42:26;;;;;;;20.13;7.10;;;;;;;;;;10440254;28;19921;-69
2022/03/28 05:47:30;;;;;;;16.17;6.82;;;;;;;;;;10470398;28;20122;-71
2022/03/28 05:52:35;;;;;;;16.20;6.43;;;;;;;;;;10438412;28;20033;-72
2022/03/28 05:57:39;;;;;;;20.33;7.10;;;;;;;;;;10446490;28;20029;-71
2022/03/28 06:02:44;;;;;;;17.48;5.97;;;;;;;;;;10452255;28;20041;-71
2022/03/28 06:07:48;;;;;;;21.63;6.55;;;;;;;;;;10449484;28;20632;-71
2022/03/28 06:12:51;;;;;;;14.48;5.55;;;;;;;;;;10454520;28;20036;-71
2022/03/28 06:17:56;;;;;;;9.45;4.15;;;;;;;;;;10458137;28;20037;-70
2022/03/28 06:23:00;;;;;;;19.35;7.18;;;;;;;;;;10460028;28;20037;-70
2022/03/28 06:28:03;;;;;;;18.83;6.03;;;;;;;;;;10447084;28;20063;-70
2022/03/28 06:33:07;;;;;;;4.97;2.60;;;;;;;;;;10445448;28;20108;-69
2022/03/28 06:38:10;;;;;;;22.08;7.45;;;;;;;;;;10437406;28;20041;-71
2022/03/28 06:43:13;;;;;;;17.10;6.40;;;;;;;;;;10444694;28;20060;-71
2022/03/28 06:48:17;;;;;;;22.23;7.38;;;;;;;;;;10431882;28;20048;-70
2022/03/28 06:53:36;;;;;;;18.38;6.82;;;;;;;;;;10449770;28;20044;-70
2022/03/28 06:58:39;;;;;;;12.37;5.00;;;;;;;;;;10474319;28;20048;-70
2022/03/28 07:03:43;;;;;;;17.40;7.97;;;;;;;;;;10453510;28;20071;-71
2022/03/28 07:08:46;;;;;;;27.85;8.27;;;;;;;;;;10456612;28;20033;-70
2022/03/28 07:13:49;;;;;;;19.20;7.00;;;;;;;;;;10460028;28;20041;-71
2022/03/28 07:18:53;;;;;;;16.38;7.65;;;;;;;;;;10443033;28;20029;-71
2022/03/28 07:23:56;;;;;;;16.48;8.07;;;;;;;;;;10441263;28;20040;-71
2022/03/28 07:29:02;;;;;;;14.43;8.38;;;;;;;;;;10458279;28;20413;-71
2022/03/28 07:39:27;;;;;;;22.40;9.52;;;;;;;;;;10450827;28;20041;-72
2022/03/28 07:44:29;;;;;;;18.98;9.68;;;;;;;;;;10458986;28;20041;-72
2022/03/28 07:49:35;;;;;;;17.67;9.18;;;;;;;;;;10451177;28;20055;-72
2022/03/28 07:54:38;;;;;;;18.58;10.38;;;;;;;;;;10441724;28;20039;-72
2022/03/28 07:59:41;;;;;;;18.60;9.60;;;;;;;;;;10455703;28;20037;-72
2022/03/28 08:04:45;;;;;;;17.85;9.90;;;;;;;;;;10445632;28;20530;-71
2022/03/28 08:09:49;;;;;;;22.92;11.00;;;;;;;;;;10436921;28;20460;-72
2022/03/28 08:14:52;;;;;;;19.67;10.65;;;;;;;;;;10434651;28;20455;-72
2022/03/28 08:19:57;;;;;;;15.00;9.35;;;;;;;;;;10443669;28;20120;-72
2022/03/28 08:25:00;;;;;;;16.63;9.52;;;;;;;;;;10471423;28;20036;-72
2022/03/28 08:30:03;;;;;;;18.77;11.45;;;;;;;;;;10452220;28;20497;-72
2022/03/28 08:35:08;;;;;;;21.10;11.60;;;;;;;;;;10461473;28;20041;-72
2022/03/28 08:40:11;;;;;;;21.48;12.35;;;;;;;;;;10440233;28;20044;-71
2022/03/28 08:45:14;;;;;;;16.85;11.13;;;;;;;;;;10436975;28;20038;-72
2022/03/28 08:50:19;;;;;;;19.88;12.00;;;;;;;;;;10459799;28;20029;-72
2022/03/28 08:55:22;;;;;;;24.33;13.65;;;;;;;;;;10455092;28;20579;-71
2022/03/28 09:00:27;;;;;;;22.80;12.70;;;;;;;;;;10461059;28;20048;-72
2022/03/28 09:05:32;;;;;;;17.35;11.55;;;;;;;;;;10451290;28;20098;-72
2022/03/28 09:10:35;;;;;;;19.35;12.05;;;;;;;;;;10458032;28;20029;-72
2022/03/28 09:15:42;;;;;;;17.70;11.52;;;;;;;;;;10464319;28;20052;-72
2022/03/28 09:20:49;;;;;;;23.10;12.73;;;;;;;;;;10428691;28;20311;-73
2022/03/28 09:25:53;;;;;;;20.25;11.63;;;;;;;;;;10442678;28;20033;-73
2022/03/28 09:30:56;;;;;;;21.92;12.73;;;;;;;;;;10455383;28;20064;-72
2022/03/28 09:36:00;;;;;;;22.05;12.15;;;;;;;;;;10466223;28;20041;-72
2022/03/28 09:41:07;;;;;;;20.20;11.88;;;;;;;;;;10437687;28;20037;-74
2022/03/28 09:46:10;;;;;;;20.92;12.82;;;;;;;;;;10451229;28;20496;-73
2022/03/28 09:51:16;;;;;;;19.13;13.52;;;;;;;;;;10450578;28;20068;-73
2022/03/28 09:56:19;;;;;;;22.10;13.00;;;;;;;;;;10450483;28;20098;-72
2022/03/28 10:07:04;;;;;;;23.55;13.63;;;;;;;;;;10456007;28;20134;-75
2022/03/28 10:12:07;;;;;;;21.45;12.95;;;;;;;;;;10450591;28;20516;-74
2022/03/28 10:17:10;;;;;;;20.35;12.20;;;;;;;;;;10451257;28;20102;-74
2022/03/28 10:22:17;;;;;;;23.42;13.40;;;;;;;;;;10441549;28;20505;-74
2022/03/28 10:27:20;;;;;;;18.40;11.95;;;;;;;;;;10444153;28;20041;-74
2022/03/28 10:32:22;;;;;;;20.88;13.27;;;;;;;;;;10459680;28;20106;-75
2022/03/28 10:37:31;;;;;;;21.42;12.85;;;;;;;;;;10456681;28;20083;-74
2022/03/28 10:42:36;;;;;;;21.47;13.50;;;;;;;;;;10451600;28;20029;-74
2022/03/28 10:47:42;;;;;;;19.55;12.55;;;;;;;;;;10447508;28;20102;-73
2022/03/28 10:58:19;;;;;;;18.60;12.75;;;;;;;;;;10508138;27;20425;-73
2022/03/28 11:03:33;;;;;;;25.33;16.20;;;;;;;;;;10503145;28;20532;-73
2022/03/28 11:08:38;;;;;;;58.58;17.48;;;;;;;;;;10503288;28;20189;-73
2022/03/28 11:13:42;;;;;;;21.08;12.65;;;;;;;;;;10505106;28;20037;-75
2022/03/28 11:18:45;;;;;;;18.23;12.40;;;;;;;;;;10509152;28;20089;-74
2022/03/28 11:24:07;;;;;;;22.92;12.73;;;;;;;;;;10510110;28;20455;-74
2022/03/28 11:29:20;;;;;;;18.52;11.80;;;;;;;;;;10508345;28;20064;-74
2022/03/28 11:34:23;;;;;;;20.02;13.07;;;;;;;;;;10510527;28;20040;-73
2022/03/28 11:39:27;;;;;;;17.92;12.88;;;;;;;;;;10504134;28;20502;-72
2022/03/28 11:44:36;;;;;;;21.50;13.50;;;;;;;;;;10503504;28;20036;-74
2022/03/28 11:49:51;;;;;;;17.63;12.45;;;;;;;;;;10493902;28;20040;-74
2022/03/28 11:54:55;;;;;;;18.65;13.02;;;;;;;;;;10506684;28;20122;-72
2022/03/28 12:00:00;;;;;;;17.52;11.27;;;;;;;;;;10494950;28;20341;-73
2022/03/28 12:05:03;;;;;;;19.83;12.18;;;;;;;;;;10499057;28;20113;-74
2022/03/28 12:10:09;;;;;;;23.13;12.07;;;;;;;;;;10470704;28;20709;-71
2022/03/28 12:15:13;;;;;;;18.58;12.30;;;;;;;;;;10476190;28;20043;-72
2022/03/28 12:20:16;;;;;;;17.35;11.95;;;;;;;;;;10473766;28;20485;-73
2022/03/28 12:25:26;;;;;;;21.38;12.50;;;;;;;;;;10443477;28;20040;-73
2022/03/28 12:30:31;;;;;;;19.30;11.43;;;;;;;;;;10441699;28;20059;-72
2022/03/28 12:35:34;;;;;;;21.38;12.27;;;;;;;;;;10471424;28;20040;-72
2022/03/28 12:40:37;;;;;;;17.17;10.98;;;;;;;;;;10451180;28;20037;-72
2022/03/28 12:45:43;;;;;;;17.00;10.90;;;;;;;;;;10469364;28;20118;-72
2022/03/28 12:50:53;;;;;;;15.23;10.00;;;;;;;;;;10473308;28;20033;-72
2022/03/28 12:56:12;;;;;;;15.43;9.52;;;;;;;;;;10477312;28;20041;-72
2022/03/28 13:01:21;;;;;;;16.50;9.75;;;;;;;;;;10475262;28;20076;-73
2022/03/28 13:06:33;;;;;;;16.42;9.85;;;;;;;;;;10496345;28;20131;-73
2022/03/28 13:11:37;;;;;;;16.55;9.82;;;;;;;;;;10489545;28;20130;-71
2022/03/28 13:16:42;;;;;;;16.67;8.57;;;;;;;;;;10489199;28;20052;-72
2022/03/28 13:21:45;;;;;;;18.25;9.70;;;;;;;;;;10496267;28;20048;-72
2022/03/28 13:26:50;;;;;;;20.55;10.75;;;;;;;;;;10493849;28;20044;-72
2022/03/28 13:31:54;;;;;;;20.00;9.50;;;;;;;;;;10498350;28;20047;-72
2022/03/28 13:36:58;;;;;;;16.23;7.93;;;;;;;;;;10477951;28;20044;-73
2022/03/28 13:42:01;;;;;;;18.70;9.10;;;;;;;;;;10472093;28;20238;-74
2022/03/28 13:47:07;;;;;;;17.35;9.80;;;;;;;;;;10480869;28;20041;-72
2022/03/28 13:52:14;;;;;;;13.98;7.43;;;;;;;;;;10483065;28;20044;-75
2022/03/28 13:57:16;;;;;;;16.08;9.40;;;;;;;;;;10494357;28;20367;-73
2022/03/28 14:02:21;;;;;;;16.60;7.35;;;;;;;;;;10486472;28;20036;-73
2022/03/28 14:07:24;;;;;;;20.27;8.55;;;;;;;;;;10481056;28;20040;-73
2022/03/28 14:12:27;;;;;;;19.00;8.80;;;;;;;;;;10473313;28;20041;-72
2022/03/28 14:17:31;;;;;;;20.08;8.68;;;;;;;;;;10465839;28;20063;-72
2022/03/28 14:22:34;;;;;;;15.20;6.80;;;;;;;;;;10470316;28;20028;-71
2022/03/28 14:27:38;;;;;;;14.68;6.82;;;;;;;;;;10470945;28;20033;-73
2022/03/28 14:32:42;;;;;;;15.93;7.10;;;;;;;;;;10471394;28;20032;-73
2022/03/28 14:37:45;;;;;;;16.05;7.85;;;;;;;;;;10473604;28;20036;-73
2022/03/28 14:42:48;;;;;;;18.13;8.35;;;;;;;;;;10478887;28;20391;-71
2022/03/28 14:47:52;;;;;;;18.00;8.18;;;;;;;;;;10467386;28;20032;-73
2022/03/28 14:52:55;;;;;;;15.93;8.10;;;;;;;;;;10468712;28;20043;-72
2022/03/28 14:57:58;;;;;;;17.77;8.90;;;;;;;;;;10472944;28;20098;-73
2022/03/28 15:03:02;;;;;;;16.98;6.38;;;;;;;;;;10474350;28;20048;-71
2022/03/28 15:08:08;;;;;;;14.20;6.68;;;;;;;;;;10473482;28;20033;-73
2022/03/28 15:13:11;;;;;;;15.70;7.55;;;;;;;;;;10474458;28;20052;-73
2022/03/28 15:18:16;;;;;;;16.25;6.28;;;;;;;;;;10474783;28;20032;-72
2022/03/28 15:23:18;;;;;;;20.30;6.57;;;;;;;;;;10473446;28;20287;-73
2022/03/28 15:28:22;;;;;;;19.00;7.20;;;;;;;;;;10477513;28;20444;-72
2022/03/28 15:33:27;;;;;;;15.65;7.63;;;;;;;;;;10475644;28;20202;-73
2022/03/28 15:38:30;;;;;;;14.15;6.47;;;;;;;;;;10469058;28;20519;-73
2022/03/28 15:43:34;;;;;;;19.58;7.10;;;;;;;;;;10476181;28;20141;-72
2022/03/28 15:48:39;;;;;;;15.98;7.13;;;;;;;;;;10480232;28;20043;-73
2022/03/28 15:53:42;;;;;;;19.88;8.00;;;;;;;;;;10521268;28;20047;-73
2022/03/28 15:58:45;;;;;;;17.40;7.63;;;;;;;;;;10517568;28;20119;-73
2022/03/28 16:03:49;;;;;;;12.70;6.18;;;;;;;;;;10479912;28;20362;-72
2022/03/28 16:08:54;;;;;;;14.10;6.28;;;;;;;;;;10480663;28;20041;-72
2022/03/28 16:13:57;;;;;;;11.88;5.60;;;;;;;;;;10483628;28;20048;-74
2022/03/28 16:19:02;;;;;;;18.55;7.82;;;;;;;;;;10481194;28;20044;-72
2022/03/28 16:24:05;;;;;;;14.68;6.55;;;;;;;;;;10474616;28;20108;-72
2022/03/28 16:29:09;;;;;;;19.08;7.82;;;;;;;;;;10481861;28;20124;-73
2022/03/28 16:34:14;;;;;;;15.65;7.18;;;;;;;;;;10478848;28;20153;-71
2022/03/28 16:39:17;;;;;;;15.05;6.25;;;;;;;;;;10483385;28;20062;-73
2022/03/28 16:44:20;;;;;;;18.25;6.60;;;;;;;;;;10475736;28;20044;-73
2022/03/28 16:49:24;;;;;;;14.75;6.55;;;;;;;;;;10473656;28;20142;-72
2022/03/28 16:54:27;;;;;;;15.32;7.22;;;;;;;;;;10477809;28;20090;-71
2022/03/28 16:59:30;;;;;;;14.57;5.88;;;;;;;;;;10475415;28;20132;-72
2022/03/28 17:04:35;;;;;;;17.10;7.43;;;;;;;;;;10475874;28;20046;-71
2022/03/28 17:09:42;;;;;;;16.73;7.00;;;;;;;;;;10469555;28;20033;-72
2022/03/28 17:14:45;;;;;;;17.90;7.20;;;;;;;;;;10472656;28;20064;-73
2022/03/28 17:19:49;;;;;;;17.17;7.30;;;;;;;;;;10477129;28;20029;-74
2022/03/28 17:24:53;;;;;;;18.33;8.93;;;;;;;;;;10478423;28;20078;-73
2022/03/28 17:29:56;;;;;;;22.85;9.15;;;;;;;;;;10475093;28;20072;-73
2022/03/28 17:35:00;;;;;;;21.60;7.73;;;;;;;;;;10477963;28;20063;-73
2022/03/28 17:40:03;;;;;;;16.45;6.53;;;;;;;;;;10473948;28;20036;-74
2022/03/28 17:45:07;;;;;;;17.98;7.13;;;;;;;;;;10480516;28;20361;-72
2022/03/28 17:50:11;;;;;;;22.17;6.97;;;;;;;;;;10475291;28;20029;-73
2022/03/28 17:55:14;;;;;;;16.08;6.45;;;;;;;;;;10478037;28;20087;-72
2022/03/28 18:00:17;;;;;;;16.37;7.20;;;;;;;;;;10475327;28;20113;-70
2022/03/28 18:05:22;;;;;;;18.75;7.78;;;;;;;;;;10481446;28;20037;-72
2022/03/28 18:10:27;;;;;;;16.10;6.93;;;;;;;;;;10477112;28;20115;-71
2022/03/28 18:15:30;;;;;;;16.00;7.72;;;;;;;;;;10477677;28;20153;-71
2022/03/28 18:20:35;;;;;;;26.25;9.43;;;;;;;;;;10474689;28;20494;-73
2022/03/28 18:25:38;;;;;;;17.63;7.57;;;;;;;;;;10476727;28;20479;-71
2022/03/28 18:30:41;;;;;;;27.02;10.68;;;;;;;;;;10475373;28;20048;-72
2022/03/28 18:35:46;;;;;;;20.15;6.90;;;;;;;;;;10475842;28;20032;-70
2022/03/28 18:40:51;;;;;;;18.60;8.05;;;;;;;;;;10475382;28;20044;-69
2022/03/28 18:45:54;;;;;;;23.75;8.18;;;;;;;;;;10468413;28;20040;-70
2022/03/28 18:50:58;;;;;;;23.77;8.35;;;;;;;;;;10469093;28;20634;-70
2022/03/28 18:56:01;;;;;;;16.67;7.55;;;;;;;;;;10471846;28;20052;-71
2022/03/28 19:01:05;;;;;;;17.60;7.80;;;;;;;;;;10473278;28;20036;-69
2022/03/28 19:06:19;;;;;;;17.52;8.07;;;;;;;;;;10475801;28;20033;-70
2022/03/28 19:11:21;;;;;;;17.08;6.25;;;;;;;;;;10477354;28;20044;-72
2022/03/28 19:16:32;;;;;;;18.17;7.28;;;;;;;;;;10476560;28;20074;-69
2022/03/28 19:21:37;;;;;;;21.20;7.63;;;;;;;;;;10482585;28;20464;-72
2022/03/28 19:26:40;;;;;;;19.33;7.20;;;;;;;;;;10480617;28;20297;-71
2022/03/28 19:31:43;;;;;;;19.23;6.97;;;;;;;;;;10479056;28;20033;-72
2022/03/28 19:36:47;;;;;;;13.37;5.97;;;;;;;;;;10477510;28;20045;-73
2022/03/28 19:41:50;;;;;;;16.27;6.50;;;;;;;;;;10473689;28;20045;-72
2022/03/28 19:46:53;;;;;;;18.35;7.38;;;;;;;;;;10475975;28;20086;-73
2022/03/28 19:51:58;;;;;;;19.38;7.30;;;;;;;;;;10475400;28;20078;-71
2022/03/28 19:57:16;;;;;;;21.98;7.18;;;;;;;;;;10480419;28;20041;-71
2022/03/28 20:02:19;;;;;;;19.77;6.95;;;;;;;;;;10474221;28;20090;-71
2022/03/28 20:07:27;;;;;;;13.85;5.82;;;;;;;;;;10474250;28;20041;-72
2022/03/28 20:12:30;;;;;;;11.93;4.93;;;;;;;;;;10474844;28;20469;-72
2022/03/28 20:17:32;;;;;;;15.07;6.70;;;;;;;;;;10480584;28;20059;-71
2022/03/28 20:22:37;;;;;;;20.50;6.78;;;;;;;;;;10511201;28;20477;-72
2022/03/28 20:27:40;;;;;;;14.35;6.30;;;;;;;;;;10540060;28;20037;-71
2022/03/28 20:32:43;;;;;;;17.30;6.53;;;;;;;;;;10519776;28;20036;-72
2022/03/28 20:37:48;;;;;;;19.58;7.40;;;;;;;;;;10495797;28;20099;-71
2022/03/28 20:42:50;;;;;;;16.85;6.40;;;;;;;;;;10477620;28;20083;-71
2022/03/28 20:47:54;;;;;;;16.05;6.55;;;;;;;;;;10473250;28;20433;-70
2022/03/28 20:52:58;;;;;;;9.45;3.28;;;;;;;;;;10472090;28;20036;-71
2022/03/28 20:58:02;;;;;;;18.15;7.13;;;;;;;;;;10471448;28;20036;-70
2022/03/28 21:03:04;;;;;;;15.40;5.70;;;;;;;;;;10473642;28;20032;-72
2022/03/28 21:08:13;;;;;;;6.80;3.28;;;;;;;;;;10473000;28;20036;-70
2022/03/28 21:13:16;;;;;;;18.48;5.90;;;;;;;;;;10478996;28;20036;-72
2022/03/28 21:18:19;;;;;;;10.30;4.07;;;;;;;;;;10472468;28;20460;-73
2022/03/28 21:23:23;;;;;;;14.85;5.50;;;;;;;;;;10474595;28;20036;-73
2022/03/28 21:28:26;;;;;;;12.50;4.90;;;;;;;;;;10473573;28;20048;-73
2022/03/28 21:33:29;;;;;;;13.30;5.60;;;;;;;;;;10476625;28;20475;-75
2022/03/28 21:38:34;;;;;;;14.32;6.10;;;;;;;;;;10473577;28;20044;-72
2022/03/28 21:43:36;;;;;;;15.50;6.20;;;;;;;;;;10473732;28;20048;-72
2022/03/28 21:48:39;;;;;;;13.73;6.72;;;;;;;;;;10488902;28;20086;-70
2022/03/28 21:53:43;;;;;;;16.85;6.53;;;;;;;;;;10472913;28;20043;-71
2022/03/28 21:58:46;;;;;;;15.30;5.38;;;;;;;;;;10478597;28;20032;-72
2022/03/28 22:03:50;;;;;;;12.90;4.45;;;;;;;;;;10475023;28;20090;-73
2022/03/28 22:08:52;;;;;;;;;;;;;;;;;;10472818;28;20492;-72
2022/03/28 22:13:57;;;;;;;14.80;6.25;;;;;;;;;;10472986;28;20342;-71
2022/03/28 22:19:00;;;;;;;13.32;5.40;;;;;;;;;;10475341;28;20032;-70
2022/03/28 22:24:03;;;;;;;15.20;6.00;;;;;;;;;;10474298;28;20486;-70
2022/03/28 22:29:07;;;;;;;13.93;5.55;;;;;;;;;;10474499;28;20028;-70
2022/03/28 22:34:09;;;;;;;;;;;;;;;;;;10476686;28;20048;-71
2022/03/28 22:39:12;;;;;;;14.98;5.43;;;;;;;;;;10472649;28;20370;-69
2022/03/28 22:44:20;;;;;;;15.30;5.65;;;;;;;;;;10472867;28;20764;-72
2022/03/28 22:49:24;;;;;;;;;;;;;;;;;;10470629;28;20037;-71
2022/03/28 22:54:26;;;;;;;13.30;5.30;;;;;;;;;;10469477;28;19948;-72
2022/03/28 22:59:30;;;;;;;17.75;5.97;;;;;;;;;;10472210;28;20114;-70
2022/03/28 23:04:34;;;;;;;17.40;6.00;;;;;;;;;;10471186;28;20040;-71
2022/03/28 23:09:37;;;;;;;13.03;6.10;;;;;;;;;;10470049;28;20040;-70
2022/03/28 23:14:42;;;;;;;14.67;5.90;;;;;;;;;;10472787;28;20047;-70
2022/03/28 23:19:46;;;;;;;16.88;6.65;;;;;;;;;;10469224;28;20036;-71
2022/03/28 23:24:49;;;;;;;14.38;6.38;;;;;;;;;;10471278;28;20127;-72
2022/03/28 23:29:53;;;;;;;15.73;5.88;;;;;;;;;;10474633;28;20033;-72
2022/03/28 23:34:56;;;;;;;8.80;3.50;;;;;;;;;;10473123;28;20115;-72
2022/03/28 23:40:00;;;;;;;15.63;6.45;;;;;;;;;;10468985;28;20060;-71
2022/03/28 23:45:05;;;;;;;15.43;6.10;;;;;;;;;;10467138;28;20078;-71
2022/03/28 23:50:11;;;;;;;16.63;6.32;;;;;;;;;;10470330;28;20044;-71
2022/03/28 23:55:14;;;;;;;17.73;7.10;;;;;;;;;;10465991;28;20389;-72
